createdAt,value
2018-11-03T00:02:24.357Z,98899.33
2018-11-03T00:04:53.298Z,98906.62
2018-11-03T00:07:22.107Z,98908.50
2018-11-03T00:09:50.857Z,98900.70
2018-11-03T00:12:19.762Z,98905.80
2018-11-03T00:14:48.537Z,98916.85
2018-11-03T00:17:17.321Z,98914.44
2018-11-03T00:19:46.058Z,98914.19
2018-11-03T00:22:14.765Z,98914.17
2018-11-03T00:24:43.460Z,98920.95
2018-11-03T00:27:12.099Z,98917.95
2018-11-03T00:29:41.098Z,98909.05
2018-11-03T00:32:09.845Z,98913.39
2018-11-03T00:34:38.718Z,98917.14
2018-11-03T00:37:07.418Z,98916.61
2018-11-03T00:39:36.391Z,98924.98
2018-11-03T00:42:05.627Z,98919.30
2018-11-03T00:44:34.621Z,98914.74
2018-11-03T00:47:03.233Z,98920.94
2018-11-03T00:49:32.025Z,98919.33
2018-11-03T00:52:00.850Z,98916.63
2018-11-03T00:54:29.677Z,98913.36
2018-11-03T00:56:58.537Z,98911.19
2018-11-03T00:59:27.333Z,98909.05
2018-11-03T01:01:56.122Z,98905.27
2018-11-03T01:04:25.081Z,98908.48
2018-11-03T01:06:53.829Z,98907.41
2018-11-03T01:09:22.631Z,98907.67
2018-11-03T01:11:51.393Z,98909.57
2018-11-03T01:14:20.285Z,98910.13
2018-11-03T01:16:48.986Z,98900.14
2018-11-03T01:19:17.846Z,98900.67
2018-11-03T01:21:46.548Z,98897.98
2018-11-03T01:24:15.248Z,98891.54
2018-11-03T01:26:44.242Z,98901.22
2018-11-03T01:29:13.450Z,98896.37
2018-11-03T01:31:42.109Z,98893.14
2018-11-03T01:34:10.992Z,98892.60
2018-11-03T01:36:39.699Z,98890.70
2018-11-03T01:39:10.646Z,98883.97
2018-11-03T01:41:39.637Z,98869.72
2018-11-03T01:44:08.976Z,98865.42
2018-11-03T01:46:37.682Z,98864.31
2018-11-03T01:49:06.515Z,98869.70
2018-11-03T01:51:35.280Z,98874.83
2018-11-03T01:54:03.991Z,98882.12
2018-11-03T01:56:32.814Z,98872.95
2018-11-03T01:59:01.500Z,98875.63
2018-11-03T02:01:30.230Z,98871.61
2018-11-03T02:03:58.962Z,98867.31
2018-11-03T02:06:27.706Z,98872.13
2018-11-03T02:08:56.429Z,98876.19
2018-11-03T02:11:25.299Z,98883.73
2018-11-03T02:13:53.974Z,98882.11
2018-11-03T02:16:22.783Z,98878.08
2018-11-03T02:18:51.488Z,98886.41
2018-11-03T02:21:20.225Z,98896.66
2018-11-03T02:23:48.901Z,98895.57
2018-11-03T02:26:17.630Z,98896.15
2018-11-03T02:28:46.493Z,98902.05
2018-11-03T02:31:15.175Z,98906.09
2018-11-03T02:33:43.849Z,98903.14
2018-11-03T02:36:12.547Z,98914.42
2018-11-03T02:38:41.213Z,98915.77
2018-11-03T02:41:10.089Z,98924.06
2018-11-03T02:43:38.921Z,98932.34
2018-11-03T02:46:07.621Z,98941.55
2018-11-03T02:48:36.309Z,98935.91
2018-11-03T02:51:05.253Z,98947.77
2018-11-03T02:53:33.973Z,98945.31
2018-11-03T02:56:02.661Z,98945.90
2018-11-03T02:58:31.490Z,98943.72
2018-11-03T03:01:00.296Z,98939.68
2018-11-03T03:03:28.941Z,98930.52
2018-11-03T03:05:57.614Z,98934.89
2018-11-03T03:08:26.434Z,98938.92
2018-11-03T03:10:55.397Z,98929.49
2018-11-03T03:13:24.100Z,98934.06
2018-11-03T03:15:52.806Z,98938.93
2018-11-03T03:18:21.642Z,98935.97
2018-11-03T03:20:50.297Z,98942.73
2018-11-03T03:23:19.067Z,98949.48
2018-11-03T03:25:48.566Z,98952.48
2018-11-03T03:28:17.302Z,98946.48
2018-11-03T03:30:46.090Z,98948.08
2018-11-03T03:33:14.898Z,98945.28
2018-11-03T03:35:43.642Z,98943.16
2018-11-03T03:38:12.282Z,98944.75
2018-11-03T03:40:41.010Z,98940.95
2018-11-03T03:43:09.750Z,98941.55
2018-11-03T03:45:38.465Z,98939.14
2018-11-03T03:48:07.266Z,98937.77
2018-11-03T03:50:35.937Z,98944.23
2018-11-03T03:53:04.873Z,98945.85
2018-11-03T03:55:33.570Z,98950.72
2018-11-03T03:58:02.317Z,98951.23
2018-11-03T04:00:31.186Z,98955.81
2018-11-03T04:03:00.027Z,98958.53
2018-11-03T04:05:28.767Z,98961.77
2018-11-03T04:07:57.613Z,98962.00
2018-11-03T04:10:26.389Z,98965.02
2018-11-03T04:12:55.121Z,98962.83
2018-11-03T04:15:25.922Z,98963.67
2018-11-03T04:17:54.751Z,98953.36
2018-11-03T04:20:23.533Z,98957.45
2018-11-03T04:22:52.281Z,98960.70
2018-11-03T04:25:21.123Z,98955.57
2018-11-03T04:27:49.782Z,98954.52
2018-11-03T04:30:18.729Z,98961.24
2018-11-03T04:32:47.721Z,98954.52
2018-11-03T04:35:16.607Z,98957.98
2018-11-03T04:37:45.407Z,98956.69
2018-11-03T04:40:14.178Z,98950.73
2018-11-03T04:42:42.924Z,98956.13
2018-11-03T04:45:12.350Z,98958.03
2018-11-03T04:47:41.044Z,98956.13
2018-11-03T04:50:10.593Z,98960.17
2018-11-03T04:52:39.681Z,98953.72
2018-11-03T04:55:09.339Z,98957.77
2018-11-03T04:57:37.964Z,98953.20
2018-11-03T05:00:07.798Z,98953.72
2018-11-03T05:02:36.539Z,98941.30
2018-11-03T05:05:05.533Z,98942.37
2018-11-03T05:07:34.238Z,98942.64
2018-11-03T05:10:02.974Z,98941.59
2018-11-03T05:12:31.617Z,98945.85
2018-11-03T05:15:00.452Z,98949.35
2018-11-03T05:17:29.186Z,98952.02
2018-11-03T05:19:57.911Z,98948.79
2018-11-03T05:22:26.586Z,98952.31
2018-11-03T05:24:55.365Z,98949.10
2018-11-03T05:27:24.066Z,98959.58
2018-11-03T05:29:52.874Z,98960.12
2018-11-03T05:32:21.574Z,98953.92
2018-11-03T05:34:50.346Z,98964.98
2018-11-03T05:37:19.110Z,98962.05
2018-11-03T05:39:47.897Z,98961.78
2018-11-03T05:42:16.647Z,98973.09
2018-11-03T05:44:45.407Z,98964.20
2018-11-03T05:47:14.216Z,98964.00
2018-11-03T05:49:43.061Z,98965.08
2018-11-03T05:52:11.737Z,98965.05
2018-11-03T05:54:40.546Z,98963.73
2018-11-03T05:57:09.399Z,98965.34
2018-11-03T05:59:38.213Z,98960.48
2018-11-03T06:02:06.976Z,98962.35
2018-11-03T06:04:35.769Z,98955.62
2018-11-03T06:07:04.477Z,98964.50
2018-11-03T06:09:33.150Z,98965.03
2018-11-03T06:12:01.791Z,98970.92
2018-11-03T06:14:30.511Z,98969.56
2018-11-03T06:16:59.337Z,98973.66
2018-11-03T06:19:28.069Z,98975.83
2018-11-03T06:21:56.794Z,98986.34
2018-11-03T06:24:25.937Z,98983.41
2018-11-03T06:26:54.590Z,98990.40
2018-11-03T06:29:23.545Z,98997.75
2018-11-03T06:31:52.334Z,99001.77
2018-11-03T06:34:21.038Z,98990.47
2018-11-03T06:36:49.924Z,99001.24
2018-11-03T06:39:18.675Z,99007.40
2018-11-03T06:41:47.325Z,99009.05
2018-11-03T06:44:16.107Z,99009.58
2018-11-03T06:46:44.922Z,99006.59
2018-11-03T06:49:18.878Z,99009.02
2018-11-03T06:51:47.640Z,99018.42
2018-11-03T06:54:16.495Z,99014.45
2018-11-03T06:56:45.390Z,99015.46
2018-11-03T06:59:14.618Z,99015.73
2018-11-03T07:01:43.417Z,99022.20
2018-11-03T07:04:12.162Z,99016.55
2018-11-03T07:06:40.851Z,99011.13
2018-11-03T07:09:11.286Z,99012.16
2018-11-03T07:11:40.693Z,99014.34
2018-11-03T07:14:10.230Z,99015.17
2018-11-03T07:16:39.082Z,99011.17
2018-11-03T07:19:07.848Z,99009.06
2018-11-03T07:21:36.590Z,99009.59
2018-11-03T07:24:05.278Z,99007.47
2018-11-03T07:26:34.026Z,99002.34
2018-11-03T07:29:02.817Z,99000.19
2018-11-03T07:31:31.521Z,99002.61
2018-11-03T07:34:00.328Z,98993.18
2018-11-03T07:36:29.062Z,98998.84
2018-11-03T07:38:57.767Z,98993.16
2018-11-03T07:41:26.570Z,98989.39
2018-11-03T07:43:55.230Z,99001.27
2018-11-03T07:46:24.364Z,99002.61
2018-11-03T07:48:53.265Z,98993.95
2018-11-03T07:51:21.942Z,98995.56
2018-11-03T07:53:50.779Z,98992.05
2018-11-03T07:56:19.645Z,98993.66
2018-11-03T07:58:48.354Z,98985.02
2018-11-03T08:01:17.138Z,98985.59
2018-11-03T08:03:48.785Z,98983.69
2018-11-03T08:06:17.649Z,98975.58
2018-11-03T08:08:46.456Z,98983.19
2018-11-03T08:11:15.274Z,98976.38
2018-11-03T08:13:44.086Z,98976.86
2018-11-03T08:16:12.790Z,98973.09
2018-11-03T08:18:41.697Z,98989.22
2018-11-03T08:21:10.354Z,98983.00
2018-11-03T08:23:39.258Z,98987.83
2018-11-03T08:26:07.998Z,98982.72
2018-11-03T08:28:36.908Z,98986.01
2018-11-03T08:31:05.768Z,98983.30
2018-11-03T08:33:34.425Z,98988.24
2018-11-03T08:36:03.181Z,98989.55
2018-11-03T08:38:32.094Z,98990.92
2018-11-03T08:41:00.750Z,98986.89
2018-11-03T08:43:29.569Z,98982.78
2018-11-03T08:45:58.386Z,98988.10
2018-11-03T08:48:27.241Z,98992.38
2018-11-03T08:50:56.082Z,98983.23
2018-11-03T08:53:24.950Z,98984.55
2018-11-03T08:55:53.639Z,98983.42
2018-11-03T08:58:22.741Z,98984.78
2018-11-03T09:00:51.477Z,98978.31
2018-11-03T09:03:20.169Z,98976.58
2018-11-03T09:05:49.034Z,98974.04
2018-11-03T09:08:17.738Z,98978.62
2018-11-03T09:10:46.530Z,98977.67
2018-11-03T09:13:15.397Z,98980.23
2018-11-03T09:15:44.161Z,98986.80
2018-11-03T09:18:13.017Z,98984.70
2018-11-03T09:20:41.758Z,98981.48
2018-11-03T09:23:10.545Z,98983.02
2018-11-03T09:25:39.350Z,98984.70
2018-11-03T09:28:08.993Z,98981.09
2018-11-03T09:30:37.870Z,98983.57
2018-11-03T09:33:06.782Z,98977.30
2018-11-03T09:35:35.557Z,98971.94
2018-11-03T09:38:04.413Z,98974.72
2018-11-03T09:40:33.202Z,98972.14
2018-11-03T09:43:02.041Z,98964.28
2018-11-03T09:45:30.945Z,98965.64
2018-11-03T09:47:59.739Z,98960.39
2018-11-03T09:50:28.556Z,98965.57
2018-11-03T09:52:57.289Z,98962.73
2018-11-03T09:55:25.969Z,98961.23
2018-11-03T09:57:54.837Z,98960.61
2018-11-03T10:00:23.609Z,98970.45
2018-11-03T10:02:52.328Z,98973.24
2018-11-03T10:05:21.130Z,98967.78
2018-11-03T10:07:50.089Z,98965.69
2018-11-03T10:10:20.012Z,98967.41
2018-11-03T10:12:48.880Z,98966.02
2018-11-03T10:15:18.861Z,98969.23
2018-11-03T10:17:47.897Z,98969.73
2018-11-03T10:20:16.748Z,98974.30
2018-11-03T10:22:45.636Z,98970.97
2018-11-03T10:25:17.049Z,98966.27
2018-11-03T10:27:46.216Z,98964.09
2018-11-03T10:30:16.039Z,98960.00
2018-11-03T10:32:45.240Z,98956.33
2018-11-03T10:35:14.622Z,98955.69
2018-11-03T10:37:43.777Z,98947.66
2018-11-03T10:40:14.545Z,98947.39
2018-11-03T10:42:43.671Z,98947.33
2018-11-03T10:45:13.875Z,98939.59
2018-11-03T10:47:42.901Z,98943.05
2018-11-03T10:50:14.211Z,98946.58
2018-11-03T10:52:43.942Z,98945.38
2018-11-03T10:55:14.141Z,98935.73
2018-11-03T10:57:43.056Z,98933.27
2018-11-03T11:00:19.195Z,98925.47
2018-11-03T11:02:53.197Z,98913.86
2018-11-03T11:05:27.047Z,98915.69
2018-11-03T11:08:00.982Z,98911.46
2018-11-03T11:10:34.964Z,98911.21
2018-11-03T11:13:06.917Z,98907.59
2018-11-03T11:15:35.777Z,98915.30
2018-11-03T11:18:04.602Z,98911.05
2018-11-03T11:20:33.603Z,98907.45
2018-11-03T11:23:02.376Z,98906.16
2018-11-03T11:25:31.260Z,98904.13
2018-11-03T11:28:00.075Z,98911.63
2018-11-03T11:30:33.025Z,98910.19
2018-11-03T11:33:02.009Z,98900.34
2018-11-03T11:35:30.679Z,98898.15
2018-11-03T11:37:59.741Z,98896.39
2018-11-03T11:40:28.695Z,98889.47
2018-11-03T11:42:57.963Z,98883.45
2018-11-03T11:45:26.736Z,98887.16
2018-11-03T11:47:55.641Z,98881.19
2018-11-03T11:50:24.465Z,98879.66
2018-11-03T11:52:53.175Z,98879.77
2018-11-03T11:55:21.913Z,98881.13
2018-11-03T11:57:51.493Z,98875.95
2018-11-03T12:00:21.211Z,98868.45
2018-11-03T12:02:49.923Z,98875.42
2018-11-03T12:05:19.128Z,98877.80
2018-11-03T12:07:47.983Z,98877.40
2018-11-03T12:10:17.117Z,98870.52
2018-11-03T12:12:45.722Z,98870.17
2018-11-03T12:15:14.659Z,98869.30
2018-11-03T12:17:43.377Z,98866.84
2018-11-03T12:20:12.390Z,98864.03
2018-11-03T12:22:41.293Z,98857.24
2018-11-03T12:25:11.407Z,98854.17
2018-11-03T12:27:40.638Z,98855.72
2018-11-03T12:30:12.729Z,98847.73
2018-11-03T12:32:42.316Z,98842.80
2018-11-03T12:35:11.903Z,98847.84
2018-11-03T12:37:41.209Z,98848.36
2018-11-03T12:40:13.981Z,98849.04
2018-11-03T12:42:42.774Z,98847.28
2018-11-03T12:45:12.545Z,98836.54
2018-11-03T12:47:41.949Z,98841.56
2018-11-03T12:50:13.858Z,98839.50
2018-11-03T12:52:43.037Z,98836.97
2018-11-03T12:55:12.245Z,98833.17
2018-11-03T12:57:42.149Z,98838.30
2018-11-03T13:00:13.006Z,98830.34
2018-11-03T13:02:42.665Z,98828.98
2018-11-03T13:05:11.456Z,98819.31
2018-11-03T13:07:41.230Z,98817.64
2018-11-03T13:10:10.886Z,98813.73
2018-11-03T13:12:40.460Z,98813.94
2018-11-03T13:15:10.638Z,98808.58
2018-11-03T13:17:39.871Z,98808.92
2018-11-03T13:20:11.147Z,98808.58
2018-11-03T13:22:41.523Z,98800.53
2018-11-03T13:25:11.954Z,98801.30
2018-11-03T13:27:41.483Z,98798.68
2018-11-03T13:30:12.403Z,98802.98
2018-11-03T13:32:41.189Z,98794.85
2018-11-03T13:35:11.356Z,98798.19
2018-11-03T13:37:40.317Z,98796.83
2018-11-03T13:40:10.308Z,98791.52
2018-11-03T13:42:39.058Z,98792.63
2018-11-03T13:45:08.490Z,98789.18
2018-11-03T13:47:38.384Z,98792.14
2018-11-03T13:50:11.488Z,98787.98
2018-11-03T13:52:41.418Z,98791.34
2018-11-03T13:55:10.758Z,98791.03
2018-11-03T13:57:40.122Z,98792.63
2018-11-03T14:00:11.328Z,98790.94
2018-11-03T14:02:40.789Z,98795.75
2018-11-03T14:05:10.341Z,98791.28
2018-11-03T14:07:39.050Z,98791.67
2018-11-03T14:10:09.836Z,98788.53
2018-11-03T14:12:38.684Z,98787.20
2018-11-03T14:15:08.748Z,98779.20
2018-11-03T14:17:37.566Z,98781.77
2018-11-03T14:20:07.629Z,98783.73
2018-11-03T14:22:36.403Z,98776.70
2018-11-03T14:25:05.893Z,98780.27
2018-11-03T14:27:34.570Z,98774.45
2018-11-03T14:30:03.301Z,98773.27
2018-11-03T14:32:32.126Z,98764.50
2018-11-03T14:35:00.922Z,98766.14
2018-11-03T14:37:29.606Z,98768.55
2018-11-03T14:39:58.591Z,98776.13
2018-11-03T14:42:27.549Z,98767.80
2018-11-03T14:44:56.507Z,98767.74
2018-11-03T14:47:25.306Z,98761.84
2018-11-03T14:49:54.085Z,98762.59
2018-11-03T14:52:23.018Z,98758.84
2018-11-03T14:54:52.143Z,98760.14
2018-11-03T14:57:21.732Z,98746.64
2018-11-03T14:59:50.545Z,98742.95
2018-11-03T15:02:19.261Z,98748.12
2018-11-03T15:04:47.938Z,98748.88
2018-11-03T15:07:16.643Z,98743.01
2018-11-03T15:09:45.297Z,98745.84
2018-11-03T15:12:13.992Z,98748.38
2018-11-03T15:14:42.836Z,98741.41
2018-11-03T15:17:11.485Z,98741.27
2018-11-03T15:19:40.193Z,98731.49
2018-11-03T15:22:08.990Z,98737.36
2018-11-03T15:24:37.679Z,98738.54
2018-11-03T15:27:08.170Z,98734.78
2018-11-03T15:29:36.994Z,98740.30
2018-11-03T15:32:05.880Z,98732.87
2018-11-03T15:34:34.750Z,98725.90
2018-11-03T15:37:03.373Z,98726.20
2018-11-03T15:39:32.026Z,98730.39
2018-11-03T15:42:00.975Z,98729.03
2018-11-03T15:44:29.757Z,98733.47
2018-11-03T15:46:58.573Z,98726.89
2018-11-03T15:49:27.260Z,98728.43
2018-11-03T15:51:55.974Z,98724.12
2018-11-03T15:54:24.689Z,98728.47
2018-11-03T15:56:53.424Z,98728.75
2018-11-03T15:59:22.185Z,98733.11
2018-11-03T16:01:51.042Z,98728.28
2018-11-03T16:04:19.810Z,98730.39
2018-11-03T16:06:48.498Z,98728.23
2018-11-03T16:09:17.174Z,98727.61
2018-11-03T16:11:45.818Z,98720.05
2018-11-03T16:14:14.558Z,98724.22
2018-11-03T16:16:43.238Z,98730.30
2018-11-03T16:19:12.133Z,98724.04
2018-11-03T16:21:40.807Z,98718.88
2018-11-03T16:24:09.637Z,98719.81
2018-11-03T16:26:38.441Z,98722.94
2018-11-03T16:29:07.143Z,98721.93
2018-11-03T16:31:35.909Z,98725.16
2018-11-03T16:34:04.844Z,98727.30
2018-11-03T16:36:33.495Z,98728.35
2018-11-03T16:39:02.249Z,98733.72
2018-11-03T16:41:30.928Z,98734.06
2018-11-03T16:43:59.821Z,98732.41
2018-11-03T16:46:28.477Z,98735.81
2018-11-03T16:48:57.272Z,98735.74
2018-11-03T16:51:26.078Z,98731.75
2018-11-03T16:53:54.750Z,98736.48
2018-11-03T16:56:23.487Z,98746.00
2018-11-03T16:58:52.177Z,98739.73
2018-11-03T17:01:20.989Z,98738.79
2018-11-03T17:03:49.921Z,98739.09
2018-11-03T17:06:18.695Z,98740.59
2018-11-03T17:08:47.354Z,98739.25
2018-11-03T17:11:16.138Z,98737.42
2018-11-03T17:13:44.922Z,98742.63
2018-11-03T17:16:14.141Z,98737.19
2018-11-03T17:18:43.022Z,98738.02
2018-11-03T17:21:11.738Z,98739.94
2018-11-03T17:23:40.442Z,98742.99
2018-11-03T17:26:09.280Z,98743.31
2018-11-03T17:28:38.133Z,98733.16
2018-11-03T17:31:06.969Z,98737.58
2018-11-03T17:33:35.741Z,98735.36
2018-11-03T17:36:04.578Z,98728.35
2018-11-03T17:38:33.400Z,98733.27
2018-11-03T17:41:02.156Z,98732.05
2018-11-03T17:43:31.073Z,98728.37
2018-11-03T17:45:59.862Z,98721.97
2018-11-03T17:48:28.685Z,98726.70
2018-11-03T17:50:57.402Z,98726.81
2018-11-03T17:53:26.288Z,98719.02
2018-11-03T17:55:55.037Z,98717.71
2018-11-03T17:58:23.797Z,98714.16
2018-11-03T18:00:52.478Z,98710.00
2018-11-03T18:03:21.188Z,98709.84
2018-11-03T18:05:50.121Z,98710.70
2018-11-03T18:08:18.806Z,98707.23
2018-11-03T18:10:47.522Z,98708.64
2018-11-03T18:13:16.569Z,98717.57
2018-11-03T18:15:45.222Z,98710.76
2018-11-03T18:18:13.937Z,98704.58
2018-11-03T18:20:42.642Z,98706.44
2018-11-03T18:23:11.330Z,98698.61
2018-11-03T18:25:40.058Z,98694.02
2018-11-03T18:28:08.909Z,98694.57
2018-11-03T18:30:37.680Z,98702.12
2018-11-03T18:33:06.524Z,98702.19
2018-11-03T18:35:35.601Z,98692.97
2018-11-03T18:38:04.291Z,98693.35
2018-11-03T18:40:33.133Z,98684.34
2018-11-03T18:43:01.994Z,98687.65
2018-11-03T18:45:30.635Z,98681.38
2018-11-03T18:47:59.385Z,98676.83
2018-11-03T18:50:28.026Z,98675.41
2018-11-03T18:52:56.753Z,98679.79
2018-11-03T18:55:25.458Z,98683.84
2018-11-03T18:57:54.256Z,98679.67
2018-11-03T19:00:23.258Z,98685.39
2018-11-03T19:02:51.967Z,98683.88
2018-11-03T19:05:20.713Z,98680.03
2018-11-03T19:07:50.061Z,98673.41
2018-11-03T19:10:18.723Z,98678.25
2018-11-03T19:12:47.406Z,98679.48
2018-11-03T19:15:16.231Z,98672.91
2018-11-03T19:17:45.101Z,98676.48
2018-11-03T19:20:15.121Z,98672.83
2018-11-03T19:22:43.956Z,98675.61
2018-11-03T19:25:13.942Z,98671.51
2018-11-03T19:27:42.775Z,98676.89
2018-11-03T19:30:12.777Z,98679.72
2018-11-03T19:32:42.997Z,98678.24
2018-11-03T19:35:11.917Z,98683.00
2018-11-03T19:37:41.250Z,98679.42
2018-11-03T19:40:11.737Z,98672.16
2018-11-03T19:42:41.095Z,98673.78
2018-11-03T19:45:10.670Z,98679.58
2018-11-03T19:47:39.626Z,98682.05
2018-11-03T19:50:09.309Z,98674.55
2018-11-03T19:52:38.149Z,98674.73
2018-11-03T19:55:06.973Z,98673.73
2018-11-03T19:57:35.902Z,98670.17
2018-11-03T20:00:05.790Z,98671.27
2018-11-03T20:02:34.525Z,98671.29
2018-11-03T20:05:03.165Z,98666.03
2018-11-03T20:07:31.902Z,98665.78
2018-11-03T20:10:00.708Z,98671.44
2018-11-03T20:12:29.542Z,98669.24
2018-11-03T20:14:58.436Z,98670.84
2018-11-03T20:17:27.320Z,98663.58
2018-11-03T20:19:56.103Z,98660.96
2018-11-03T20:22:25.366Z,98659.71
2018-11-03T20:24:54.047Z,98649.50
2018-11-03T20:27:22.895Z,98655.00
2018-11-03T20:29:51.600Z,98654.34
2018-11-03T20:32:20.275Z,98651.30
2018-11-03T20:34:48.916Z,98653.09
2018-11-03T20:37:17.623Z,98651.09
2018-11-03T20:39:46.358Z,98643.38
2018-11-03T20:42:15.054Z,98648.19
2018-11-03T20:44:43.862Z,98642.48
2018-11-03T20:47:12.548Z,98639.69
2018-11-03T20:49:41.315Z,98632.62
2018-11-03T20:52:10.068Z,98629.41
2018-11-03T20:54:38.833Z,98624.06
2018-11-03T20:57:07.518Z,98627.77
2018-11-03T20:59:36.285Z,98627.02
2018-11-03T21:02:05.044Z,98621.55
2018-11-03T21:04:33.847Z,98623.50
2018-11-03T21:07:02.565Z,98624.34
2018-11-03T21:09:31.318Z,98625.27
2018-11-03T21:12:00.057Z,98623.25
2018-11-03T21:14:28.726Z,98617.22
2018-11-03T21:16:57.646Z,98610.91
2018-11-03T21:19:26.391Z,98608.48
2018-11-03T21:21:55.217Z,98613.45
2018-11-03T21:24:23.959Z,98613.68
2018-11-03T21:26:52.869Z,98613.17
2018-11-03T21:29:21.662Z,98617.39
2018-11-03T21:31:50.472Z,98608.59
2018-11-03T21:34:19.193Z,98600.18
2018-11-03T21:36:47.909Z,98599.97
2018-11-03T21:39:16.685Z,98595.53
2018-11-03T21:41:45.551Z,98591.75
2018-11-03T21:44:14.287Z,98594.56
2018-11-03T21:46:43.071Z,98588.16
2018-11-03T21:49:11.703Z,98588.14
2018-11-03T21:51:40.702Z,98592.72
2018-11-03T21:54:09.650Z,98591.65
2018-11-03T21:56:38.418Z,98592.36
2018-11-03T21:59:07.262Z,98590.41
2018-11-03T22:01:36.010Z,98589.20
2018-11-03T22:04:04.820Z,98584.59
2018-11-03T22:06:33.715Z,98580.03
2018-11-03T22:09:02.562Z,98574.43
2018-11-03T22:11:31.238Z,98576.39
2018-11-03T22:14:00.062Z,98579.18
2018-11-03T22:16:28.958Z,98571.27
2018-11-03T22:18:57.674Z,98573.41
2018-11-03T22:21:26.535Z,98573.41
2018-11-03T22:23:55.278Z,98573.16
2018-11-03T22:26:24.279Z,98573.67
2018-11-03T22:28:53.090Z,98572.42
2018-11-03T22:31:21.799Z,98579.98
2018-11-03T22:33:50.501Z,98577.67
2018-11-03T22:36:19.224Z,98576.61
2018-11-03T22:38:48.124Z,98562.86
2018-11-03T22:41:16.881Z,98567.52
2018-11-03T22:43:45.557Z,98568.66
2018-11-03T22:46:14.337Z,98563.20
2018-11-03T22:48:43.131Z,98562.91
2018-11-03T22:51:16.596Z,98561.62
2018-11-03T22:53:46.659Z,98555.41
2018-11-03T22:56:15.882Z,98552.44
2018-11-03T22:58:44.533Z,98549.30
2018-11-03T23:01:13.255Z,98548.99
2018-11-03T23:03:42.003Z,98549.66
2018-11-03T23:06:10.770Z,98546.86
2018-11-03T23:08:39.493Z,98540.58
2018-11-03T23:11:08.293Z,98538.36
2018-11-03T23:13:36.968Z,98528.09
2018-11-03T23:16:06.054Z,98533.06
2018-11-03T23:18:34.738Z,98527.61
2018-11-03T23:21:03.449Z,98526.55
2018-11-03T23:23:32.097Z,98523.87
2018-11-03T23:26:00.821Z,98520.53
2018-11-03T23:28:29.722Z,98524.59
2018-11-03T23:30:58.558Z,98508.61
2018-11-03T23:33:27.270Z,98508.42
2018-11-03T23:35:56.030Z,98506.34
2018-11-03T23:38:24.906Z,98504.57
2018-11-03T23:40:53.577Z,98500.18
2018-11-03T23:43:22.262Z,98499.58
2018-11-03T23:45:51.001Z,98492.02
2018-11-03T23:48:19.853Z,98495.57
2018-11-03T23:50:48.641Z,98488.31
2018-11-03T23:53:17.292Z,98484.33
2018-11-03T23:55:46.009Z,98478.13
2018-11-03T23:58:14.656Z,98480.27
